sensor_id;sensor_type;location;lat;lon;timestamp;P1;durP1;ratioP1;P2;durP2;ratioP2
15340;SDS011;7770;52.158;5.372;2024-01-06T00:00:48;15.00;;;12.50;;
15340;SDS011;7770;52.158;5.372;2024-01-06T00:03:34;15.83;;;12.97;;
15340;SDS011;7770;52.158;5.372;2024-01-06T00:06:20;16.00;;;12.60;;
15340;SDS011;7770;52.158;5.372;2024-01-06T00:09:06;14.10;;;11.57;;
15340;SDS011;7770;52.158;5.372;2024-01-06T00:11:53;15.13;;;11.30;;
15340;SDS011;7770;52.158;5.372;2024-01-06T00:14:39;16.63;;;12.80;;
15340;SDS011;7770;52.158;5.372;2024-01-06T00:17:29;16.20;;;12.80;;
15340;SDS011;7770;52.158;5.372;2024-01-06T00:20:15;16.23;;;12.37;;
15340;SDS011;7770;52.158;5.372;2024-01-06T00:23:01;15.70;;;11.93;;
15340;SDS011;7770;52.158;5.372;2024-01-06T00:25:47;14.07;;;11.67;;
15340;SDS011;7770;52.158;5.372;2024-01-06T00:28:33;14.47;;;11.47;;
15340;SDS011;7770;52.158;5.372;2024-01-06T00:31:19;12.80;;;9.93;;
15340;SDS011;7770;52.158;5.372;2024-01-06T00:34:05;12.50;;;10.27;;
15340;SDS011;7770;52.158;5.372;2024-01-06T00:36:51;11.80;;;9.97;;
15340;SDS011;7770;52.158;5.372;2024-01-06T00:39:37;13.37;;;10.87;;
15340;SDS011;7770;52.158;5.372;2024-01-06T00:42:23;14.73;;;12.27;;
15340;SDS011;7770;52.158;5.372;2024-01-06T00:45:09;17.13;;;12.57;;
15340;SDS011;7770;52.158;5.372;2024-01-06T00:47:55;15.27;;;12.17;;
15340;SDS011;7770;52.158;5.372;2024-01-06T00:50:41;16.57;;;13.07;;
15340;SDS011;7770;52.158;5.372;2024-01-06T00:53:27;16.07;;;13.43;;
15340;SDS011;7770;52.158;5.372;2024-01-06T00:56:13;16.57;;;13.37;;
15340;SDS011;7770;52.158;5.372;2024-01-06T00:58:59;16.20;;;13.43;;
15340;SDS011;7770;52.158;5.372;2024-01-06T01:01:45;17.27;;;13.63;;
15340;SDS011;7770;52.158;5.372;2024-01-06T01:04:31;16.13;;;12.57;;
15340;SDS011;7770;52.158;5.372;2024-01-06T01:07:17;16.43;;;13.30;;
15340;SDS011;7770;52.158;5.372;2024-01-06T01:10:03;18.17;;;13.40;;
15340;SDS011;7770;52.158;5.372;2024-01-06T01:12:50;17.70;;;13.93;;
15340;SDS011;7770;52.158;5.372;2024-01-06T01:15:36;33.27;;;23.73;;
15340;SDS011;7770;52.158;5.372;2024-01-06T01:18:22;18.30;;;14.10;;
15340;SDS011;7770;52.158;5.372;2024-01-06T01:21:08;18.17;;;14.43;;
15340;SDS011;7770;52.158;5.372;2024-01-06T01:23:54;17.80;;;13.70;;
15340;SDS011;7770;52.158;5.372;2024-01-06T01:26:40;18.57;;;13.80;;
15340;SDS011;7770;52.158;5.372;2024-01-06T01:29:26;20.13;;;16.07;;
15340;SDS011;7770;52.158;5.372;2024-01-06T01:32:12;20.60;;;15.77;;
15340;SDS011;7770;52.158;5.372;2024-01-06T01:34:58;21.63;;;17.10;;
15340;SDS011;7770;52.158;5.372;2024-01-06T01:37:44;22.33;;;17.20;;
15340;SDS011;7770;52.158;5.372;2024-01-06T01:40:30;22.37;;;16.57;;
15340;SDS011;7770;52.158;5.372;2024-01-06T01:43:17;23.63;;;16.57;;
15340;SDS011;7770;52.158;5.372;2024-01-06T01:46:04;19.40;;;15.77;;
15340;SDS011;7770;52.158;5.372;2024-01-06T01:48:50;20.87;;;15.40;;
15340;SDS011;7770;52.158;5.372;2024-01-06T01:51:36;20.13;;;15.77;;
15340;SDS011;7770;52.158;5.372;2024-01-06T01:54:23;20.10;;;15.20;;
15340;SDS011;7770;52.158;5.372;2024-01-06T01:57:11;20.27;;;14.20;;
15340;SDS011;7770;52.158;5.372;2024-01-06T01:59:59;18.20;;;14.67;;
15340;SDS011;7770;52.158;5.372;2024-01-06T02:02:46;19.20;;;15.07;;
15340;SDS011;7770;52.158;5.372;2024-01-06T02:05:32;16.83;;;13.57;;
15340;SDS011;7770;52.158;5.372;2024-01-06T02:08:18;15.83;;;12.60;;
15340;SDS011;7770;52.158;5.372;2024-01-06T02:11:04;16.43;;;13.70;;
15340;SDS011;7770;52.158;5.372;2024-01-06T02:13:50;15.63;;;12.70;;
15340;SDS011;7770;52.158;5.372;2024-01-06T02:16:36;15.73;;;12.67;;
15340;SDS011;7770;52.158;5.372;2024-01-06T02:19:22;17.40;;;13.30;;
15340;SDS011;7770;52.158;5.372;2024-01-06T02:22:09;15.70;;;12.27;;
15340;SDS011;7770;52.158;5.372;2024-01-06T02:24:55;16.23;;;12.10;;
15340;SDS011;7770;52.158;5.372;2024-01-06T02:27:41;16.20;;;12.50;;
15340;SDS011;7770;52.158;5.372;2024-01-06T02:30:27;14.80;;;11.77;;
15340;SDS011;7770;52.158;5.372;2024-01-06T02:33:13;16.60;;;13.23;;
15340;SDS011;7770;52.158;5.372;2024-01-06T02:35:59;16.83;;;13.67;;
15340;SDS011;7770;52.158;5.372;2024-01-06T02:38:45;18.53;;;14.80;;
15340;SDS011;7770;52.158;5.372;2024-01-06T02:41:31;20.07;;;15.10;;
15340;SDS011;7770;52.158;5.372;2024-01-06T02:44:17;20.87;;;15.83;;
15340;SDS011;7770;52.158;5.372;2024-01-06T02:47:03;22.43;;;17.10;;
15340;SDS011;7770;52.158;5.372;2024-01-06T02:49:50;24.13;;;17.23;;
15340;SDS011;7770;52.158;5.372;2024-01-06T02:52:36;20.47;;;15.40;;
15340;SDS011;7770;52.158;5.372;2024-01-06T02:55:22;18.67;;;14.90;;
15340;SDS011;7770;52.158;5.372;2024-01-06T02:58:08;18.73;;;14.63;;
15340;SDS011;7770;52.158;5.372;2024-01-06T03:00:54;19.43;;;14.10;;
15340;SDS011;7770;52.158;5.372;2024-01-06T03:03:40;17.67;;;13.17;;
15340;SDS011;7770;52.158;5.372;2024-01-06T03:06:27;19.10;;;13.40;;
15340;SDS011;7770;52.158;5.372;2024-01-06T03:09:14;17.80;;;13.60;;
15340;SDS011;7770;52.158;5.372;2024-01-06T03:12:01;17.70;;;13.50;;
15340;SDS011;7770;52.158;5.372;2024-01-06T03:14:47;15.53;;;12.13;;
15340;SDS011;7770;52.158;5.372;2024-01-06T03:17:33;17.37;;;13.27;;
15340;SDS011;7770;52.158;5.372;2024-01-06T03:20:19;15.13;;;12.77;;
15340;SDS011;7770;52.158;5.372;2024-01-06T03:23:05;14.57;;;11.43;;
15340;SDS011;7770;52.158;5.372;2024-01-06T03:25:51;14.00;;;11.30;;
15340;SDS011;7770;52.158;5.372;2024-01-06T03:28:37;14.83;;;11.33;;
15340;SDS011;7770;52.158;5.372;2024-01-06T03:31:23;13.73;;;10.87;;
15340;SDS011;7770;52.158;5.372;2024-01-06T03:34:09;12.23;;;9.97;;
15340;SDS011;7770;52.158;5.372;2024-01-06T03:36:56;15.37;;;11.03;;
15340;SDS011;7770;52.158;5.372;2024-01-06T03:39:42;15.63;;;11.20;;
15340;SDS011;7770;52.158;5.372;2024-01-06T03:42:28;13.83;;;11.03;;
15340;SDS011;7770;52.158;5.372;2024-01-06T03:45:14;16.97;;;12.63;;
15340;SDS011;7770;52.158;5.372;2024-01-06T03:48:00;15.37;;;11.90;;
15340;SDS011;7770;52.158;5.372;2024-01-06T03:50:46;16.80;;;12.67;;
15340;SDS011;7770;52.158;5.372;2024-01-06T03:53:32;16.77;;;12.93;;
15340;SDS011;7770;52.158;5.372;2024-01-06T03:56:18;17.20;;;12.90;;
15340;SDS011;7770;52.158;5.372;2024-01-06T03:59:04;19.30;;;13.80;;
15340;SDS011;7770;52.158;5.372;2024-01-06T04:01:50;18.97;;;14.87;;
15340;SDS011;7770;52.158;5.372;2024-01-06T04:04:36;20.13;;;14.63;;
15340;SDS011;7770;52.158;5.372;2024-01-06T04:07:22;18.47;;;14.30;;
15340;SDS011;7770;52.158;5.372;2024-01-06T04:10:08;17.13;;;13.20;;
15340;SDS011;7770;52.158;5.372;2024-01-06T04:12:54;16.47;;;12.93;;
15340;SDS011;7770;52.158;5.372;2024-01-06T04:15:40;15.63;;;12.20;;
15340;SDS011;7770;52.158;5.372;2024-01-06T04:18:26;15.53;;;11.23;;
15340;SDS011;7770;52.158;5.372;2024-01-06T04:21:12;16.23;;;11.47;;
15340;SDS011;7770;52.158;5.372;2024-01-06T04:23:58;17.80;;;12.53;;
15340;SDS011;7770;52.158;5.372;2024-01-06T04:26:44;14.73;;;11.20;;
15340;SDS011;7770;52.158;5.372;2024-01-06T04:29:31;15.33;;;11.30;;
15340;SDS011;7770;52.158;5.372;2024-01-06T04:32:17;13.10;;;10.40;;
15340;SDS011;7770;52.158;5.372;2024-01-06T04:35:03;14.43;;;11.37;;
15340;SDS011;7770;52.158;5.372;2024-01-06T04:37:49;15.13;;;11.57;;
15340;SDS011;7770;52.158;5.372;2024-01-06T04:40:35;18.10;;;12.77;;
15340;SDS011;7770;52.158;5.372;2024-01-06T04:43:21;15.40;;;12.70;;
15340;SDS011;7770;52.158;5.372;2024-01-06T04:46:08;17.03;;;13.23;;
15340;SDS011;7770;52.158;5.372;2024-01-06T04:48:53;14.50;;;11.20;;
15340;SDS011;7770;52.158;5.372;2024-01-06T04:51:39;15.20;;;12.43;;
15340;SDS011;7770;52.158;5.372;2024-01-06T04:54:26;17.67;;;13.97;;
15340;SDS011;7770;52.158;5.372;2024-01-06T04:57:12;18.33;;;12.23;;
15340;SDS011;7770;52.158;5.372;2024-01-06T04:59:58;18.97;;;13.67;;
15340;SDS011;7770;52.158;5.372;2024-01-06T05:02:45;17.93;;;12.97;;
15340;SDS011;7770;52.158;5.372;2024-01-06T05:05:31;18.33;;;13.07;;
15340;SDS011;7770;52.158;5.372;2024-01-06T05:08:17;18.60;;;14.40;;
15340;SDS011;7770;52.158;5.372;2024-01-06T05:11:03;17.60;;;14.00;;
15340;SDS011;7770;52.158;5.372;2024-01-06T05:13:50;17.87;;;14.17;;
15340;SDS011;7770;52.158;5.372;2024-01-06T05:16:36;19.33;;;13.83;;
15340;SDS011;7770;52.158;5.372;2024-01-06T05:19:22;18.80;;;13.63;;
15340;SDS011;7770;52.158;5.372;2024-01-06T05:22:08;17.50;;;13.37;;
15340;SDS011;7770;52.158;5.372;2024-01-06T05:24:54;17.13;;;13.53;;
15340;SDS011;7770;52.158;5.372;2024-01-06T05:27:41;19.77;;;14.77;;
15340;SDS011;7770;52.158;5.372;2024-01-06T05:30:27;19.40;;;14.07;;
15340;SDS011;7770;52.158;5.372;2024-01-06T05:33:13;19.33;;;14.63;;
15340;SDS011;7770;52.158;5.372;2024-01-06T05:36:00;21.17;;;14.77;;
15340;SDS011;7770;52.158;5.372;2024-01-06T05:38:46;22.63;;;15.13;;
15340;SDS011;7770;52.158;5.372;2024-01-06T05:41:38;21.73;;;15.50;;
15340;SDS011;7770;52.158;5.372;2024-01-06T05:44:25;21.83;;;16.13;;
15340;SDS011;7770;52.158;5.372;2024-01-06T05:47:11;21.03;;;15.73;;
15340;SDS011;7770;52.158;5.372;2024-01-06T05:49:57;23.37;;;16.30;;
15340;SDS011;7770;52.158;5.372;2024-01-06T05:52:43;27.70;;;16.07;;
15340;SDS011;7770;52.158;5.372;2024-01-06T05:55:29;22.60;;;15.47;;
15340;SDS011;7770;52.158;5.372;2024-01-06T05:58:15;21.50;;;16.70;;
15340;SDS011;7770;52.158;5.372;2024-01-06T06:01:01;20.53;;;15.87;;
15340;SDS011;7770;52.158;5.372;2024-01-06T06:03:48;23.97;;;18.13;;
15340;SDS011;7770;52.158;5.372;2024-01-06T06:06:35;26.23;;;17.50;;
15340;SDS011;7770;52.158;5.372;2024-01-06T06:09:21;23.57;;;17.17;;
15340;SDS011;7770;52.158;5.372;2024-01-06T06:12:07;24.17;;;16.97;;
15340;SDS011;7770;52.158;5.372;2024-01-06T06:14:53;20.87;;;16.00;;
15340;SDS011;7770;52.158;5.372;2024-01-06T06:17:41;24.60;;;16.37;;
15340;SDS011;7770;52.158;5.372;2024-01-06T06:20:27;23.47;;;17.10;;
15340;SDS011;7770;52.158;5.372;2024-01-06T06:23:13;22.77;;;16.93;;
15340;SDS011;7770;52.158;5.372;2024-01-06T06:25:59;25.30;;;17.73;;
15340;SDS011;7770;52.158;5.372;2024-01-06T06:28:50;27.27;;;17.47;;
15340;SDS011;7770;52.158;5.372;2024-01-06T06:31:36;23.47;;;15.90;;
15340;SDS011;7770;52.158;5.372;2024-01-06T06:34:22;22.70;;;16.53;;
15340;SDS011;7770;52.158;5.372;2024-01-06T06:37:08;22.13;;;15.20;;
15340;SDS011;7770;52.158;5.372;2024-01-06T06:39:54;23.53;;;16.80;;
15340;SDS011;7770;52.158;5.372;2024-01-06T06:42:40;23.90;;;15.13;;
15340;SDS011;7770;52.158;5.372;2024-01-06T06:45:26;23.30;;;16.00;;
15340;SDS011;7770;52.158;5.372;2024-01-06T06:48:12;22.33;;;16.53;;
15340;SDS011;7770;52.158;5.372;2024-01-06T06:50:58;20.83;;;14.97;;
15340;SDS011;7770;52.158;5.372;2024-01-06T06:53:44;22.57;;;15.40;;
15340;SDS011;7770;52.158;5.372;2024-01-06T06:56:30;20.10;;;15.17;;
15340;SDS011;7770;52.158;5.372;2024-01-06T06:59:16;22.03;;;15.33;;
15340;SDS011;7770;52.158;5.372;2024-01-06T07:02:02;22.60;;;15.90;;
15340;SDS011;7770;52.158;5.372;2024-01-06T07:04:48;24.90;;;15.20;;
15340;SDS011;7770;52.158;5.372;2024-01-06T07:07:34;23.67;;;14.93;;
15340;SDS011;7770;52.158;5.372;2024-01-06T07:10:20;20.17;;;15.03;;
15340;SDS011;7770;52.158;5.372;2024-01-06T07:13:07;21.37;;;14.93;;
15340;SDS011;7770;52.158;5.372;2024-01-06T07:15:53;19.73;;;14.53;;
15340;SDS011;7770;52.158;5.372;2024-01-06T07:18:39;17.37;;;12.97;;
15340;SDS011;7770;52.158;5.372;2024-01-06T07:21:25;19.43;;;13.77;;
15340;SDS011;7770;52.158;5.372;2024-01-06T07:24:11;19.43;;;13.70;;
15340;SDS011;7770;52.158;5.372;2024-01-06T07:26:57;17.17;;;13.07;;
15340;SDS011;7770;52.158;5.372;2024-01-06T07:29:43;16.10;;;12.67;;
15340;SDS011;7770;52.158;5.372;2024-01-06T07:32:30;14.90;;;12.07;;
15340;SDS011;7770;52.158;5.372;2024-01-06T07:35:16;17.40;;;12.63;;
15340;SDS011;7770;52.158;5.372;2024-01-06T07:38:03;15.87;;;12.97;;
15340;SDS011;7770;52.158;5.372;2024-01-06T07:40:49;17.17;;;13.07;;
15340;SDS011;7770;52.158;5.372;2024-01-06T07:43:35;17.40;;;13.13;;
15340;SDS011;7770;52.158;5.372;2024-01-06T07:46:21;17.37;;;13.33;;
15340;SDS011;7770;52.158;5.372;2024-01-06T07:49:07;16.00;;;12.77;;
15340;SDS011;7770;52.158;5.372;2024-01-06T07:51:53;15.33;;;12.47;;
15340;SDS011;7770;52.158;5.372;2024-01-06T07:54:39;19.47;;;14.43;;
15340;SDS011;7770;52.158;5.372;2024-01-06T07:57:25;16.53;;;12.20;;
15340;SDS011;7770;52.158;5.372;2024-01-06T08:00:11;18.80;;;12.80;;
15340;SDS011;7770;52.158;5.372;2024-01-06T08:03:00;18.77;;;14.53;;
15340;SDS011;7770;52.158;5.372;2024-01-06T08:05:47;16.87;;;13.67;;
15340;SDS011;7770;52.158;5.372;2024-01-06T08:08:34;18.47;;;15.03;;
15340;SDS011;7770;52.158;5.372;2024-01-06T08:11:21;19.10;;;11.20;;
15340;SDS011;7770;52.158;5.372;2024-01-06T08:14:07;18.30;;;15.13;;
15340;SDS011;7770;52.158;5.372;2024-01-06T08:16:53;18.97;;;14.53;;
15340;SDS011;7770;52.158;5.372;2024-01-06T08:19:39;18.50;;;14.47;;
15340;SDS011;7770;52.158;5.372;2024-01-06T08:22:25;17.23;;;14.23;;
15340;SDS011;7770;52.158;5.372;2024-01-06T08:25:11;18.80;;;15.03;;
15340;SDS011;7770;52.158;5.372;2024-01-06T08:27:58;17.40;;;14.60;;
15340;SDS011;7770;52.158;5.372;2024-01-06T08:30:44;20.37;;;14.83;;
15340;SDS011;7770;52.158;5.372;2024-01-06T08:33:31;19.27;;;15.10;;
15340;SDS011;7770;52.158;5.372;2024-01-06T08:36:17;19.40;;;13.77;;
15340;SDS011;7770;52.158;5.372;2024-01-06T08:39:03;20.30;;;15.03;;
15340;SDS011;7770;52.158;5.372;2024-01-06T08:41:49;16.80;;;13.87;;
15340;SDS011;7770;52.158;5.372;2024-01-06T08:44:35;15.93;;;12.80;;
15340;SDS011;7770;52.158;5.372;2024-01-06T08:47:21;19.77;;;15.20;;
15340;SDS011;7770;52.158;5.372;2024-01-06T08:50:07;19.13;;;14.10;;
15340;SDS011;7770;52.158;5.372;2024-01-06T08:52:53;18.33;;;14.37;;
15340;SDS011;7770;52.158;5.372;2024-01-06T08:55:39;19.47;;;13.40;;
15340;SDS011;7770;52.158;5.372;2024-01-06T08:58:25;18.17;;;13.87;;
15340;SDS011;7770;52.158;5.372;2024-01-06T09:01:11;17.27;;;14.10;;
15340;SDS011;7770;52.158;5.372;2024-01-06T09:03:58;18.37;;;13.00;;
15340;SDS011;7770;52.158;5.372;2024-01-06T09:06:44;18.30;;;12.73;;
15340;SDS011;7770;52.158;5.372;2024-01-06T09:09:32;19.03;;;13.53;;
15340;SDS011;7770;52.158;5.372;2024-01-06T09:12:18;17.93;;;13.03;;
15340;SDS011;7770;52.158;5.372;2024-01-06T09:15:04;14.77;;;12.70;;
15340;SDS011;7770;52.158;5.372;2024-01-06T09:17:50;18.43;;;13.30;;
15340;SDS011;7770;52.158;5.372;2024-01-06T09:20:36;16.07;;;12.30;;
15340;SDS011;7770;52.158;5.372;2024-01-06T09:23:24;18.50;;;12.97;;
15340;SDS011;7770;52.158;5.372;2024-01-06T09:26:10;14.87;;;11.63;;
15340;SDS011;7770;52.158;5.372;2024-01-06T09:28:56;16.07;;;11.80;;
15340;SDS011;7770;52.158;5.372;2024-01-06T09:31:42;15.73;;;12.03;;
15340;SDS011;7770;52.158;5.372;2024-01-06T09:34:28;16.87;;;11.90;;
15340;SDS011;7770;52.158;5.372;2024-01-06T09:37:14;14.23;;;11.73;;
15340;SDS011;7770;52.158;5.372;2024-01-06T09:40:00;15.50;;;11.70;;
15340;SDS011;7770;52.158;5.372;2024-01-06T09:42:46;14.90;;;10.23;;
15340;SDS011;7770;52.158;5.372;2024-01-06T09:45:32;12.87;;;11.13;;
15340;SDS011;7770;52.158;5.372;2024-01-06T09:48:19;15.90;;;11.17;;
15340;SDS011;7770;52.158;5.372;2024-01-06T09:51:09;15.17;;;11.23;;
15340;SDS011;7770;52.158;5.372;2024-01-06T09:54:00;15.13;;;10.70;;
15340;SDS011;7770;52.158;5.372;2024-01-06T09:56:49;14.17;;;11.17;;
15340;SDS011;7770;52.158;5.372;2024-01-06T09:59:35;15.47;;;10.70;;
15340;SDS011;7770;52.158;5.372;2024-01-06T10:02:22;13.87;;;10.63;;
15340;SDS011;7770;52.158;5.372;2024-01-06T10:05:09;12.43;;;10.97;;
15340;SDS011;7770;52.158;5.372;2024-01-06T10:07:57;14.77;;;11.33;;
15340;SDS011;7770;52.158;5.372;2024-01-06T10:10:44;15.77;;;12.07;;
15340;SDS011;7770;52.158;5.372;2024-01-06T10:13:31;12.50;;;10.53;;
15340;SDS011;7770;52.158;5.372;2024-01-06T10:16:17;13.77;;;11.70;;
15340;SDS011;7770;52.158;5.372;2024-01-06T10:19:03;15.13;;;11.67;;
15340;SDS011;7770;52.158;5.372;2024-01-06T10:21:49;15.87;;;11.73;;
15340;SDS011;7770;52.158;5.372;2024-01-06T10:24:38;15.07;;;12.13;;
15340;SDS011;7770;52.158;5.372;2024-01-06T10:27:25;12.30;;;11.00;;
15340;SDS011;7770;52.158;5.372;2024-01-06T10:30:11;15.73;;;12.70;;
15340;SDS011;7770;52.158;5.372;2024-01-06T10:32:59;15.33;;;11.63;;
15340;SDS011;7770;52.158;5.372;2024-01-06T10:35:45;15.70;;;12.57;;
15340;SDS011;7770;52.158;5.372;2024-01-06T10:38:33;17.07;;;12.87;;
15340;SDS011;7770;52.158;5.372;2024-01-06T10:41:19;15.43;;;13.00;;
15340;SDS011;7770;52.158;5.372;2024-01-06T10:44:06;15.90;;;13.23;;
15340;SDS011;7770;52.158;5.372;2024-01-06T10:46:52;16.67;;;14.47;;
15340;SDS011;7770;52.158;5.372;2024-01-06T10:49:40;15.90;;;13.13;;
15340;SDS011;7770;52.158;5.372;2024-01-06T10:52:28;17.07;;;13.83;;
15340;SDS011;7770;52.158;5.372;2024-01-06T10:55:17;18.80;;;13.00;;
15340;SDS011;7770;52.158;5.372;2024-01-06T10:58:05;17.13;;;14.93;;
15340;SDS011;7770;52.158;5.372;2024-01-06T11:00:55;15.50;;;12.80;;
15340;SDS011;7770;52.158;5.372;2024-01-06T11:03:42;18.87;;;13.93;;
15340;SDS011;7770;52.158;5.372;2024-01-06T11:06:28;16.50;;;12.97;;
15340;SDS011;7770;52.158;5.372;2024-01-06T11:09:19;16.33;;;13.93;;
15340;SDS011;7770;52.158;5.372;2024-01-06T11:12:10;16.07;;;12.90;;
15340;SDS011;7770;52.158;5.372;2024-01-06T11:14:56;18.70;;;13.40;;
15340;SDS011;7770;52.158;5.372;2024-01-06T11:17:57;17.13;;;13.87;;
15340;SDS011;7770;52.158;5.372;2024-01-06T11:21:09;16.40;;;13.20;;
15340;SDS011;7770;52.158;5.372;2024-01-06T11:24:16;22.17;;;16.57;;
15340;SDS011;7770;52.158;5.372;2024-01-06T11:27:10;17.77;;;15.37;;
15340;SDS011;7770;52.158;5.372;2024-01-06T11:30:07;21.07;;;15.20;;
15340;SDS011;7770;52.158;5.372;2024-01-06T11:33:08;16.87;;;12.17;;
15340;SDS011;7770;52.158;5.372;2024-01-06T11:35:55;14.27;;;11.73;;
15340;SDS011;7770;52.158;5.372;2024-01-06T11:38:41;13.93;;;11.57;;
15340;SDS011;7770;52.158;5.372;2024-01-06T11:44:37;15.07;;;11.90;;
15340;SDS011;7770;52.158;5.372;2024-01-06T11:47:30;15.53;;;12.70;;
15340;SDS011;7770;52.158;5.372;2024-01-06T11:50:17;16.93;;;13.03;;
15340;SDS011;7770;52.158;5.372;2024-01-06T11:53:04;18.03;;;13.43;;
15340;SDS011;7770;52.158;5.372;2024-01-06T11:55:52;14.40;;;12.47;;
15340;SDS011;7770;52.158;5.372;2024-01-06T11:58:41;13.57;;;11.80;;
15340;SDS011;7770;52.158;5.372;2024-01-06T12:01:27;18.30;;;11.57;;
15340;SDS011;7770;52.158;5.372;2024-01-06T12:04:21;14.30;;;11.40;;
15340;SDS011;7770;52.158;5.372;2024-01-06T12:07:10;13.07;;;11.13;;
15340;SDS011;7770;52.158;5.372;2024-01-06T12:10:00;12.53;;;10.70;;
15340;SDS011;7770;52.158;5.372;2024-01-06T12:13:01;19.77;;;12.50;;
15340;SDS011;7770;52.158;5.372;2024-01-06T12:15:49;14.20;;;11.47;;
15340;SDS011;7770;52.158;5.372;2024-01-06T12:18:36;13.80;;;11.60;;
15340;SDS011;7770;52.158;5.372;2024-01-06T12:21:22;13.47;;;11.87;;
15340;SDS011;7770;52.158;5.372;2024-01-06T12:24:15;14.37;;;11.23;;
15340;SDS011;7770;52.158;5.372;2024-01-06T12:27:08;13.00;;;11.60;;
15340;SDS011;7770;52.158;5.372;2024-01-06T12:29:55;18.00;;;14.93;;
15340;SDS011;7770;52.158;5.372;2024-01-06T12:32:42;19.23;;;12.93;;
15340;SDS011;7770;52.158;5.372;2024-01-06T12:35:30;15.37;;;12.87;;
15340;SDS011;7770;52.158;5.372;2024-01-06T12:38:19;16.83;;;14.20;;
15340;SDS011;7770;52.158;5.372;2024-01-06T12:41:05;17.17;;;13.47;;
15340;SDS011;7770;52.158;5.372;2024-01-06T12:43:51;16.57;;;13.43;;
15340;SDS011;7770;52.158;5.372;2024-01-06T12:46:37;15.23;;;12.83;;
15340;SDS011;7770;52.158;5.372;2024-01-06T12:49:23;17.87;;;14.70;;
15340;SDS011;7770;52.158;5.372;2024-01-06T12:52:09;20.70;;;15.53;;
15340;SDS011;7770;52.158;5.372;2024-01-06T12:54:55;18.87;;;12.60;;
15340;SDS011;7770;52.158;5.372;2024-01-06T12:57:42;17.43;;;14.07;;
15340;SDS011;7770;52.158;5.372;2024-01-06T13:00:28;18.80;;;14.10;;
15340;SDS011;7770;52.158;5.372;2024-01-06T13:03:14;18.13;;;13.30;;
15340;SDS011;7770;52.158;5.372;2024-01-06T13:06:00;18.50;;;14.60;;
15340;SDS011;7770;52.158;5.372;2024-01-06T13:08:47;16.53;;;14.07;;
15340;SDS011;7770;52.158;5.372;2024-01-06T13:11:35;16.00;;;13.30;;
15340;SDS011;7770;52.158;5.372;2024-01-06T13:14:21;18.60;;;14.20;;
15340;SDS011;7770;52.158;5.372;2024-01-06T13:17:07;15.97;;;13.37;;
15340;SDS011;7770;52.158;5.372;2024-01-06T13:19:54;17.27;;;14.10;;
15340;SDS011;7770;52.158;5.372;2024-01-06T13:22:41;17.67;;;13.47;;
15340;SDS011;7770;52.158;5.372;2024-01-06T13:25:27;15.57;;;13.50;;
15340;SDS011;7770;52.158;5.372;2024-01-06T13:28:14;18.00;;;14.30;;
15340;SDS011;7770;52.158;5.372;2024-01-06T13:31:00;17.30;;;13.43;;
15340;SDS011;7770;52.158;5.372;2024-01-06T13:33:46;18.00;;;14.30;;
15340;SDS011;7770;52.158;5.372;2024-01-06T13:36:32;17.73;;;14.70;;
15340;SDS011;7770;52.158;5.372;2024-01-06T13:39:18;17.67;;;14.23;;
15340;SDS011;7770;52.158;5.372;2024-01-06T13:42:07;19.87;;;14.30;;
15340;SDS011;7770;52.158;5.372;2024-01-06T13:44:53;18.73;;;14.53;;
15340;SDS011;7770;52.158;5.372;2024-01-06T13:47:39;19.63;;;14.80;;
15340;SDS011;7770;52.158;5.372;2024-01-06T13:50:29;18.10;;;14.73;;
15340;SDS011;7770;52.158;5.372;2024-01-06T13:53:15;20.50;;;14.37;;
15340;SDS011;7770;52.158;5.372;2024-01-06T13:56:02;18.20;;;15.03;;
15340;SDS011;7770;52.158;5.372;2024-01-06T13:58:48;20.20;;;14.73;;
15340;SDS011;7770;52.158;5.372;2024-01-06T14:01:34;19.10;;;14.33;;
15340;SDS011;7770;52.158;5.372;2024-01-06T14:04:20;19.13;;;15.23;;
15340;SDS011;7770;52.158;5.372;2024-01-06T14:07:09;18.03;;;14.63;;
15340;SDS011;7770;52.158;5.372;2024-01-06T14:09:55;17.77;;;15.30;;
15340;SDS011;7770;52.158;5.372;2024-01-06T14:12:41;16.13;;;14.20;;
15340;SDS011;7770;52.158;5.372;2024-01-06T14:15:27;20.03;;;14.83;;
15340;SDS011;7770;52.158;5.372;2024-01-06T14:18:16;19.30;;;15.03;;
15340;SDS011;7770;52.158;5.372;2024-01-06T14:21:02;19.30;;;15.17;;
15340;SDS011;7770;52.158;5.372;2024-01-06T14:23:48;16.30;;;13.37;;
15340;SDS011;7770;52.158;5.372;2024-01-06T14:26:34;21.87;;;15.27;;
15340;SDS011;7770;52.158;5.372;2024-01-06T14:29:21;19.73;;;13.10;;
15340;SDS011;7770;52.158;5.372;2024-01-06T14:32:07;24.97;;;14.70;;
15340;SDS011;7770;52.158;5.372;2024-01-06T14:34:53;18.00;;;13.87;;
15340;SDS011;7770;52.158;5.372;2024-01-06T14:37:39;18.90;;;13.87;;
15340;SDS011;7770;52.158;5.372;2024-01-06T14:40:25;17.17;;;13.70;;
15340;SDS011;7770;52.158;5.372;2024-01-06T14:43:11;17.60;;;14.07;;
15340;SDS011;7770;52.158;5.372;2024-01-06T14:45:57;14.47;;;12.87;;
15340;SDS011;7770;52.158;5.372;2024-01-06T14:48:43;14.80;;;11.87;;
15340;SDS011;7770;52.158;5.372;2024-01-06T14:51:29;18.27;;;14.40;;
15340;SDS011;7770;52.158;5.372;2024-01-06T14:54:15;17.73;;;13.90;;
15340;SDS011;7770;52.158;5.372;2024-01-06T14:57:01;18.30;;;14.13;;
15340;SDS011;7770;52.158;5.372;2024-01-06T14:59:47;18.37;;;14.13;;
15340;SDS011;7770;52.158;5.372;2024-01-06T15:02:33;16.83;;;13.53;;
15340;SDS011;7770;52.158;5.372;2024-01-06T15:05:19;15.17;;;12.90;;
15340;SDS011;7770;52.158;5.372;2024-01-06T15:08:05;14.90;;;12.33;;
15340;SDS011;7770;52.158;5.372;2024-01-06T15:10:51;16.33;;;13.20;;
15340;SDS011;7770;52.158;5.372;2024-01-06T15:13:38;13.57;;;11.00;;
15340;SDS011;7770;52.158;5.372;2024-01-06T15:16:24;15.23;;;12.97;;
15340;SDS011;7770;52.158;5.372;2024-01-06T15:19:09;15.33;;;12.47;;
15340;SDS011;7770;52.158;5.372;2024-01-06T15:21:57;14.87;;;12.60;;
15340;SDS011;7770;52.158;5.372;2024-01-06T15:24:43;14.73;;;11.90;;
15340;SDS011;7770;52.158;5.372;2024-01-06T15:27:29;14.50;;;11.60;;
15340;SDS011;7770;52.158;5.372;2024-01-06T15:30:15;14.33;;;11.90;;
15340;SDS011;7770;52.158;5.372;2024-01-06T15:33:03;14.93;;;11.90;;
15340;SDS011;7770;52.158;5.372;2024-01-06T15:35:49;12.37;;;11.07;;
15340;SDS011;7770;52.158;5.372;2024-01-06T15:38:35;15.67;;;10.97;;
15340;SDS011;7770;52.158;5.372;2024-01-06T15:41:21;13.53;;;11.00;;
15340;SDS011;7770;52.158;5.372;2024-01-06T15:44:07;12.33;;;11.10;;
15340;SDS011;7770;52.158;5.372;2024-01-06T15:46:53;11.40;;;9.50;;
15340;SDS011;7770;52.158;5.372;2024-01-06T15:49:39;12.00;;;10.43;;
15340;SDS011;7770;52.158;5.372;2024-01-06T15:52:25;11.13;;;9.87;;
15340;SDS011;7770;52.158;5.372;2024-01-06T15:55:11;12.40;;;9.90;;
15340;SDS011;7770;52.158;5.372;2024-01-06T15:57:57;12.70;;;10.73;;
15340;SDS011;7770;52.158;5.372;2024-01-06T16:00:43;11.73;;;9.67;;
15340;SDS011;7770;52.158;5.372;2024-01-06T16:03:29;11.77;;;10.13;;
15340;SDS011;7770;52.158;5.372;2024-01-06T16:06:16;13.27;;;10.93;;
15340;SDS011;7770;52.158;5.372;2024-01-06T16:09:04;12.23;;;10.70;;
15340;SDS011;7770;52.158;5.372;2024-01-06T16:11:51;12.83;;;11.40;;
15340;SDS011;7770;52.158;5.372;2024-01-06T16:14:38;13.00;;;11.17;;
15340;SDS011;7770;52.158;5.372;2024-01-06T16:17:24;15.67;;;11.57;;
15340;SDS011;7770;52.158;5.372;2024-01-06T16:20:10;14.07;;;11.53;;
15340;SDS011;7770;52.158;5.372;2024-01-06T16:22:56;13.57;;;11.80;;
15340;SDS011;7770;52.158;5.372;2024-01-06T16:25:42;13.90;;;12.07;;
15340;SDS011;7770;52.158;5.372;2024-01-06T16:28:29;15.33;;;12.27;;
15340;SDS011;7770;52.158;5.372;2024-01-06T16:31:15;14.60;;;12.67;;
15340;SDS011;7770;52.158;5.372;2024-01-06T16:34:01;14.13;;;12.17;;